Check out our new PWSWeather beta!
PWSweather.com
Personal Weather Stations
Station Observations
KVAGLENALL
West Henrico, Glen Allen, VA 23060-6503

West HenricoGlen Allen, VA 23060-6503

Lat: 37.6554, Lon: -77.5693

Elevation: 273

Station Type: Davis Vantage Pro II

www.glenallenweather.com

High Low Average
Temperature 68.0°F20.0°C 45.2°F7.3°C 61.7°F16.5°C
Dew Point 63.9°F17.7°C 40.2°F4.6°C 53.0°F11.7°C
Winds 19.0 mph 30.6 kmh Calm Calm 5.0 mph SSW8.0 kmh SSW
Wind Gusts 22.2 mph35.7 kmh -- 9.0 mph14.5 kmh
Humidity 99% 55% 74%
Pressure 30.19 in1022.4 mb 29.80 in1009.1 mb -
Precipitation 0.00 in0.0 mm - -
Hour Temp Dew Point Humidity Winds Wind Gusts Pressure Precip Precip Rate Daily Precip Total
12:00 AM 62.9°F17.2°C 62.6°F17.0°C 99% 9.0 mph SW14.5 kmh SW 16.2 mph26.1 kmh 29.88 in1011.9 mb 0.00 in0.0 mm 0.00 in0.0 mm 0.00 in0.0 mm
12:30 AM 64.3°F17.9°C 63.5°F17.5°C 97% 13.0 mph SSW20.9 kmh SSW 21.2 mph34.1 kmh 29.87 in1011.5 mb 0.00 in0.0 mm 0.00 in0.0 mm 0.00 in0.0 mm
01:00 AM 65.2°F18.4°C 63.5°F17.5°C 94% 9.0 mph SSW14.5 kmh SSW 19.2 mph30.9 kmh 29.86 in1011.2 mb 0.00 in0.0 mm 0.00 in0.0 mm 0.00 in0.0 mm
01:30 AM 65.7°F18.7°C 63.3°F17.4°C 92% 6.0 mph SSW9.7 kmh SSW 22.2 mph35.7 kmh 29.85 in1010.8 mb 0.00 in0.0 mm 0.00 in0.0 mm 0.00 in0.0 mm
02:00 AM 66.2°F19.0°C 63.2°F17.3°C 90% 19.0 mph SW30.6 kmh SW 19.2 mph30.9 kmh 29.84 in1010.5 mb 0.00 in0.0 mm 0.00 in0.0 mm 0.00 in0.0 mm
02:30 AM 66.8°F19.3°C 63.5°F17.5°C 89% 6.0 mph S9.7 kmh S 10.1 mph16.3 kmh 29.85 in1010.8 mb 0.00 in0.0 mm 0.00 in0.0 mm 0.00 in0.0 mm
03:00 AM 67.0°F19.4°C 63.7°F17.6°C 89% 13.0 mph SSW20.9 kmh SSW 21.2 mph34.1 kmh 29.85 in1010.8 mb 0.00 in0.0 mm 0.00 in0.0 mm 0.00 in0.0 mm
03:30 AM 66.9°F19.4°C 63.9°F17.7°C 90% 8.0 mph SW12.9 kmh SW 19.2 mph30.9 kmh 29.81 in1009.5 mb 0.00 in0.0 mm 0.00 in0.0 mm 0.00 in0.0 mm
04:00 AM 66.9°F19.4°C 63.9°F17.7°C 90% 3.0 mph SSW4.8 kmh SSW 15.1 mph24.3 kmh 29.81 in1009.5 mb 0.00 in0.0 mm 0.00 in0.0 mm 0.00 in0.0 mm
04:30 AM 67.1°F19.5°C 63.8°F17.7°C 89% 15.0 mph S24.1 kmh S 17.2 mph27.7 kmh 29.81 in1009.5 mb 0.00 in0.0 mm 0.00 in0.0 mm 0.00 in0.0 mm
05:00 AM 67.2°F19.6°C 63.9°F17.7°C 89% 12.0 mph SSW19.3 kmh SSW 15.1 mph24.3 kmh 29.80 in1009.1 mb 0.00 in0.0 mm 0.00 in0.0 mm 0.00 in0.0 mm
05:30 AM 67.0°F19.4°C 63.7°F17.6°C 89% 7.0 mph SW11.3 kmh SW 14.1 mph22.7 kmh 29.81 in1009.5 mb 0.00 in0.0 mm 0.00 in0.0 mm 0.00 in0.0 mm
05:45 AM 67.0°F19.4°C 63.7°F17.6°C 89% 4.0 mph S6.4 kmh S 15.1 mph24.3 kmh 29.81 in1009.5 mb 0.00 in0.0 mm 0.00 in0.0 mm 0.00 in0.0 mm
06:00 AM 67.0°F19.4°C 63.7°F17.6°C 89% 9.0 mph SW14.5 kmh SW 14.1 mph22.7 kmh 29.82 in1009.8 mb 0.00 in0.0 mm 0.00 in0.0 mm 0.00 in0.0 mm
06:15 AM 66.8°F19.3°C 63.5°F17.5°C 89% 10.0 mph WSW16.1 kmh WSW 17.2 mph27.7 kmh 29.83 in1010.2 mb 0.00 in0.0 mm 0.00 in0.0 mm 0.00 in0.0 mm
06:30 AM 66.2°F19.0°C 62.9°F17.2°C 89% 3.0 mph WSW4.8 kmh WSW 7.1 mph11.4 kmh 29.84 in1010.5 mb 0.00 in0.0 mm 0.00 in0.0 mm 0.00 in0.0 mm
06:45 AM 66.3°F19.1°C 63.0°F17.2°C 89% 7.0 mph SW11.3 kmh SW 13.1 mph21.1 kmh 29.85 in1010.8 mb 0.00 in0.0 mm 0.00 in0.0 mm 0.00 in0.0 mm
07:00 AM 66.1°F18.9°C 62.5°F16.9°C 88% 13.0 mph SW20.9 kmh SW 13.1 mph21.1 kmh 29.86 in1011.2 mb 0.00 in0.0 mm 0.00 in0.0 mm 0.00 in0.0 mm
07:15 AM 66.4°F19.1°C 62.5°F16.9°C 87% 6.0 mph S9.7 kmh S 16.2 mph26.1 kmh 29.87 in1011.5 mb 0.00 in0.0 mm 0.00 in0.0 mm 0.00 in0.0 mm
07:30 AM 65.9°F18.8°C 62.0°F16.7°C 87% 7.0 mph NW11.3 kmh NW 16.2 mph26.1 kmh 29.88 in1011.9 mb 0.00 in0.0 mm 0.00 in0.0 mm 0.00 in0.0 mm
07:45 AM 65.5°F18.6°C 60.9°F16.1°C 85% 8.0 mph SW12.9 kmh SW 15.1 mph24.3 kmh 29.87 in1011.5 mb 0.00 in0.0 mm 0.00 in0.0 mm 0.00 in0.0 mm
08:00 AM 65.3°F18.5°C 60.0°F15.6°C 83% 6.0 mph SW9.7 kmh SW 13.1 mph21.1 kmh 29.89 in1012.2 mb 0.00 in0.0 mm 0.00 in0.0 mm 0.00 in0.0 mm
08:30 AM 64.5°F18.1°C 58.9°F14.9°C 82% 6.0 mph WSW9.7 kmh WSW 11.1 mph17.9 kmh 29.92 in1013.2 mb 0.00 in0.0 mm 0.00 in0.0 mm 0.00 in0.0 mm
08:45 AM 64.5°F18.1°C 57.2°F14.0°C 77% 5.0 mph WNW8.0 kmh WNW 11.1 mph17.9 kmh 29.92 in1013.2 mb 0.00 in0.0 mm 0.00 in0.0 mm 0.00 in0.0 mm
09:00 AM 64.4°F18.0°C 56.3°F13.5°C 75% 6.0 mph SW9.7 kmh SW 10.1 mph16.3 kmh 29.93 in1013.5 mb 0.00 in0.0 mm 0.00 in0.0 mm 0.00 in0.0 mm
09:15 AM 64.2°F17.9°C 55.4°F13.0°C 73% 4.0 mph WSW6.4 kmh WSW 8.1 mph13.0 kmh 29.94 in1013.9 mb 0.00 in0.0 mm 0.00 in0.0 mm 0.00 in0.0 mm
09:30 AM 64.2°F17.9°C 55.0°F12.8°C 72% 5.0 mph SW8.0 kmh SW 5.1 mph8.2 kmh 29.94 in1013.9 mb 0.00 in0.0 mm 0.00 in0.0 mm 0.00 in0.0 mm
09:45 AM 64.2°F17.9°C 54.2°F12.3°C 70% 3.0 mph WSW4.8 kmh WSW 9.1 mph14.6 kmh 29.95 in1014.2 mb 0.00 in0.0 mm 0.00 in0.0 mm 0.00 in0.0 mm
10:00 AM 64.5°F18.1°C 54.1°F12.3°C 69% 8.0 mph W12.9 kmh W 15.1 mph24.3 kmh 29.97 in1014.9 mb 0.00 in0.0 mm 0.00 in0.0 mm 0.00 in0.0 mm
10:15 AM 64.2°F17.9°C 53.1°F11.7°C 67% 8.0 mph WSW12.9 kmh WSW 10.1 mph16.3 kmh 29.96 in1014.6 mb 0.00 in0.0 mm 0.00 in0.0 mm 0.00 in0.0 mm
10:30 AM 64.1°F17.8°C 53.4°F11.9°C 68% 11.0 mph WSW17.7 kmh WSW 13.1 mph21.1 kmh 29.97 in1014.9 mb 0.00 in0.0 mm 0.00 in0.0 mm 0.00 in0.0 mm
10:45 AM 64.6°F18.1°C 53.8°F12.1°C 68% 8.0 mph SW12.9 kmh SW 10.1 mph16.3 kmh 29.96 in1014.6 mb 0.00 in0.0 mm 0.00 in0.0 mm 0.00 in0.0 mm
11:00 AM 65.3°F18.5°C 54.5°F12.5°C 68% 3.0 mph WSW4.8 kmh WSW 3.0 mph4.8 kmh 29.98 in1015.2 mb 0.00 in0.0 mm 0.00 in0.0 mm 0.00 in0.0 mm
11:15 AM 65.0°F18.3°C 54.2°F12.3°C 68% 4.0 mph W6.4 kmh W 7.1 mph11.4 kmh 29.95 in1014.2 mb 0.00 in0.0 mm 0.00 in0.0 mm 0.00 in0.0 mm
11:30 AM 65.6°F18.7°C 54.4°F12.4°C 67% 4.0 mph SW6.4 kmh SW 5.1 mph8.2 kmh 29.95 in1014.2 mb 0.00 in0.0 mm 0.00 in0.0 mm 0.00 in0.0 mm
11:45 AM 66.4°F19.1°C 54.7°F12.6°C 66% 4.0 mph WNW6.4 kmh WNW 5.1 mph8.2 kmh 29.97 in1014.9 mb 0.00 in0.0 mm 0.00 in0.0 mm 0.00 in0.0 mm
12:00 PM 66.4°F19.1°C 53.9°F12.2°C 64% 4.0 mph WSW6.4 kmh WSW 7.1 mph11.4 kmh 29.95 in1014.2 mb 0.00 in0.0 mm 0.00 in0.0 mm 0.00 in0.0 mm
12:15 PM 67.1°F19.5°C 53.7°F12.1°C 62% 2.0 mph WNW3.2 kmh WNW 10.1 mph16.3 kmh 29.96 in1014.6 mb 0.00 in0.0 mm 0.00 in0.0 mm 0.00 in0.0 mm
12:30 PM 68.0°F20.0°C 54.6°F12.6°C 62% 1.0 mph WSW1.6 kmh WSW 3.0 mph4.8 kmh 29.95 in1014.2 mb 0.00 in0.0 mm 0.00 in0.0 mm 0.00 in0.0 mm
12:45 PM 66.7°F19.3°C 51.5°F10.8°C 58% 3.0 mph NW4.8 kmh NW 11.1 mph17.9 kmh 29.96 in1014.6 mb 0.00 in0.0 mm 0.00 in0.0 mm 0.00 in0.0 mm
01:00 PM 66.6°F19.2°C 51.9°F11.1°C 59% 11.0 mph NW17.7 kmh NW 13.1 mph21.1 kmh 29.96 in1014.6 mb 0.00 in0.0 mm 0.00 in0.0 mm 0.00 in0.0 mm
01:15 PM 65.9°F18.8°C 50.8°F10.4°C 58% 4.0 mph WNW6.4 kmh WNW 11.1 mph17.9 kmh 29.97 in1014.9 mb 0.00 in0.0 mm 0.00 in0.0 mm 0.00 in0.0 mm
01:30 PM 65.4°F18.6°C 50.3°F10.2°C 58% 3.0 mph WNW4.8 kmh WNW 10.1 mph16.3 kmh 29.97 in1014.9 mb 0.00 in0.0 mm 0.00 in0.0 mm 0.00 in0.0 mm
01:45 PM 65.2°F18.4°C 50.6°F10.3°C 59% 3.0 mph S4.8 kmh S 7.1 mph11.4 kmh 29.97 in1014.9 mb 0.00 in0.0 mm 0.00 in0.0 mm 0.00 in0.0 mm
02:00 PM 65.1°F18.4°C 50.5°F10.3°C 59% 5.0 mph NW8.0 kmh NW 10.1 mph16.3 kmh 29.98 in1015.2 mb 0.00 in0.0 mm 0.00 in0.0 mm 0.00 in0.0 mm
02:15 PM 65.0°F18.3°C 49.4°F9.7°C 57% 3.0 mph NW4.8 kmh NW 4.0 mph6.4 kmh 29.98 in1015.2 mb 0.00 in0.0 mm 0.00 in0.0 mm 0.00 in0.0 mm
02:30 PM 64.8°F18.2°C 48.8°F9.3°C 56% 5.0 mph WNW8.0 kmh WNW 10.1 mph16.3 kmh 30.00 in1015.9 mb 0.00 in0.0 mm 0.00 in0.0 mm 0.00 in0.0 mm
02:45 PM 64.5°F18.1°C 48.5°F9.2°C 56% 2.0 mph NW3.2 kmh NW 14.1 mph22.7 kmh 30.01 in1016.3 mb 0.00 in0.0 mm 0.00 in0.0 mm 0.00 in0.0 mm
03:00 PM 64.3°F17.9°C 48.3°F9.1°C 56% 1.0 mph NW1.6 kmh NW 7.1 mph11.4 kmh 30.01 in1016.3 mb 0.00 in0.0 mm 0.00 in0.0 mm 0.00 in0.0 mm
03:15 PM 64.0°F17.8°C 47.5°F8.6°C 55% 2.0 mph WNW3.2 kmh WNW 10.1 mph16.3 kmh 30.02 in1016.6 mb 0.00 in0.0 mm 0.00 in0.0 mm 0.00 in0.0 mm
03:30 PM 63.6°F17.6°C 48.1°F8.9°C 57% 3.0 mph NW4.8 kmh NW 11.1 mph17.9 kmh 30.03 in1016.9 mb 0.00 in0.0 mm 0.00 in0.0 mm 0.00 in0.0 mm
03:45 PM 62.9°F17.2°C 47.5°F8.6°C 57% 2.0 mph WNW3.2 kmh WNW 7.1 mph11.4 kmh 30.04 in1017.3 mb 0.00 in0.0 mm 0.00 in0.0 mm 0.00 in0.0 mm
04:00 PM 62.3°F16.8°C 48.7°F9.3°C 61% 2.0 mph W3.2 kmh W 2.0 mph3.2 kmh 30.05 in1017.6 mb 0.00 in0.0 mm 0.00 in0.0 mm 0.00 in0.0 mm
04:15 PM 61.6°F16.4°C 48.5°F9.2°C 62% 1.0 mph W1.6 kmh W 1.0 mph1.6 kmh 30.05 in1017.6 mb 0.00 in0.0 mm 0.00 in0.0 mm 0.00 in0.0 mm
04:30 PM 60.5°F15.8°C 48.3°F9.1°C 64% 2.0 mph NW3.2 kmh NW 6.1 mph9.8 kmh 30.06 in1017.9 mb 0.00 in0.0 mm 0.00 in0.0 mm 0.00 in0.0 mm
04:45 PM 59.6°F15.3°C 48.2°F9.0°C 66% Calm Calm 2.0 mph3.2 kmh 30.06 in1017.9 mb 0.00 in0.0 mm 0.00 in0.0 mm 0.00 in0.0 mm
05:00 PM 58.6°F14.8°C 48.1°F8.9°C 68% 1.0 mph WNW1.6 kmh WNW 1.0 mph1.6 kmh 30.06 in1017.9 mb 0.00 in0.0 mm 0.00 in0.0 mm 0.00 in0.0 mm
05:15 PM 57.5°F14.2°C 47.4°F8.6°C 69% Calm Calm -- 30.07 in1018.3 mb 0.00 in0.0 mm 0.00 in0.0 mm 0.00 in0.0 mm
05:30 PM 56.8°F13.8°C 47.5°F8.6°C 71% 6.0 mph NE9.7 kmh NE 9.1 mph14.6 kmh 30.07 in1018.3 mb 0.00 in0.0 mm 0.00 in0.0 mm 0.00 in0.0 mm
05:45 PM 57.2°F14.0°C 47.9°F8.8°C 71% 2.0 mph WNW3.2 kmh WNW 6.1 mph9.8 kmh 30.09 in1019.0 mb 0.00 in0.0 mm 0.00 in0.0 mm 0.00 in0.0 mm
06:00 PM 56.9°F13.8°C 48.0°F8.9°C 72% 4.0 mph NE6.4 kmh NE 5.1 mph8.2 kmh 30.11 in1019.6 mb 0.00 in0.0 mm 0.00 in0.0 mm 0.00 in0.0 mm
06:15 PM 56.4°F13.6°C 47.1°F8.4°C 71% 5.0 mph NNE8.0 kmh NNE 7.1 mph11.4 kmh 30.11 in1019.6 mb 0.00 in0.0 mm 0.00 in0.0 mm 0.00 in0.0 mm
06:30 PM 55.8°F13.2°C 46.9°F8.3°C 72% 4.0 mph NE6.4 kmh NE 9.1 mph14.6 kmh 30.12 in1020.0 mb 0.00 in0.0 mm 0.00 in0.0 mm 0.00 in0.0 mm
06:45 PM 54.9°F12.7°C 46.0°F7.8°C 72% 5.0 mph NE8.0 kmh NE 6.1 mph9.8 kmh 30.14 in1020.7 mb 0.00 in0.0 mm 0.00 in0.0 mm 0.00 in0.0 mm
07:00 PM 54.1°F12.3°C 45.6°F7.6°C 73% 1.0 mph NE1.6 kmh NE 4.0 mph6.4 kmh 30.15 in1021.0 mb 0.00 in0.0 mm 0.00 in0.0 mm 0.00 in0.0 mm
07:15 PM 53.5°F11.9°C 45.4°F7.4°C 74% 4.0 mph NE6.4 kmh NE 8.1 mph13.0 kmh 30.15 in1021.0 mb 0.00 in0.0 mm 0.00 in0.0 mm 0.00 in0.0 mm
07:30 PM 52.7°F11.5°C 44.6°F7.0°C 74% 4.0 mph NNE6.4 kmh NNE 6.1 mph9.8 kmh 30.16 in1021.3 mb 0.00 in0.0 mm 0.00 in0.0 mm 0.00 in0.0 mm
07:45 PM 52.3°F11.3°C 44.2°F6.8°C 74% 4.0 mph N6.4 kmh N 5.1 mph8.2 kmh 30.16 in1021.3 mb 0.00 in0.0 mm 0.00 in0.0 mm 0.00 in0.0 mm
08:00 PM 51.6°F10.9°C 43.9°F6.6°C 75% 4.0 mph N6.4 kmh N 6.1 mph9.8 kmh 30.17 in1021.7 mb 0.00 in0.0 mm 0.00 in0.0 mm 0.00 in0.0 mm
08:15 PM 50.8°F10.4°C 43.5°F6.4°C 76% 2.0 mph NE3.2 kmh NE 3.0 mph4.8 kmh 30.18 in1022.0 mb 0.00 in0.0 mm 0.00 in0.0 mm 0.00 in0.0 mm
08:30 PM 50.4°F10.2°C 43.4°F6.3°C 77% 1.0 mph NE1.6 kmh NE 3.0 mph4.8 kmh 30.18 in1022.0 mb 0.00 in0.0 mm 0.00 in0.0 mm 0.00 in0.0 mm
08:45 PM 50.4°F10.2°C 43.1°F6.2°C 76% 5.0 mph NNE8.0 kmh NNE 5.1 mph8.2 kmh 30.19 in1022.4 mb 0.00 in0.0 mm 0.00 in0.0 mm 0.00 in0.0 mm
09:00 PM 50.3°F10.2°C 42.6°F5.9°C 75% 1.0 mph NNE1.6 kmh NNE 4.0 mph6.4 kmh 30.19 in1022.4 mb 0.00 in0.0 mm 0.00 in0.0 mm 0.00 in0.0 mm
09:30 PM 49.6°F9.8°C 42.0°F5.6°C 75% 1.0 mph ENE1.6 kmh ENE 5.1 mph8.2 kmh 30.19 in1022.4 mb 0.00 in0.0 mm 0.00 in0.0 mm 0.00 in0.0 mm
10:00 PM 48.9°F9.4°C 41.4°F5.2°C 75% 2.0 mph E3.2 kmh E 4.0 mph6.4 kmh 30.19 in1022.4 mb 0.00 in0.0 mm 0.00 in0.0 mm 0.00 in0.0 mm
10:30 PM 48.3°F9.1°C 41.1°F5.1°C 76% 2.0 mph NE3.2 kmh NE 3.0 mph4.8 kmh 30.19 in1022.4 mb 0.00 in0.0 mm 0.00 in0.0 mm 0.00 in0.0 mm
11:00 PM 46.6°F8.1°C 40.2°F4.6°C 78% Calm Calm -- 30.19 in1022.4 mb 0.00 in0.0 mm 0.00 in0.0 mm 0.00 in0.0 mm
11:30 PM 45.2°F7.3°C 40.4°F4.7°C 83% 1.0 mph N1.6 kmh N 7.1 mph11.4 kmh 30.19 in1022.4 mb 0.00 in0.0 mm 0.00 in0.0 mm 0.00 in0.0 mm